Cimbria — V2CC7 — position and weather

sailwx.info

Track history (hours):
 
Tides and Currents Weather Stations Pressure Air Temp Water Temp Dewpoint Dewpoint Depression Visibility Wind Speed Wind Dir Waves Ship Positions

Cimbria

Last reported at 2014-Aug-14 23:21 UTC. Time now 2014-Aug-21 14:11 UTC.
Position N 43°16' E 009°11'.

Length 109 m; draft 6.8 m.

Type: Cargo ship. MMSI: 304981000.

Date/timePositionNaut miles runAvg speedWind from/ knotsBaromVisibWave heightAir tempDewpointWater temp
2014-Aug-14 23:21N 43°16' E 009°11'6 7.8
2014-Aug-14 22:33N 43°21' E 009°17'7 7.4
2014-Aug-14 21:33N 43°27' E 009°23'6 6.2
2014-Aug-14 20:33N 43°29' E 009°31'7 7.0
2014-Aug-14 19:33N 43°35' E 009°35'8 7.8
2014-Aug-14 18:33N 43°42' E 009°40'9 8.6
2014-Aug-14 17:33N 43°50' E 009°45'9 9.0
2014-Aug-14 16:33N 43°58' E 009°50'8 8.2
2014-Aug-14 15:33N 44°06' E 009°50'1 0.5
2014-Aug-14 14:32N 44°06' E 009°50'0 0.0
2014-Aug-14 13:32N 44°06' E 009°50'0 0.0
2014-Aug-14 12:32N 44°06' E 009°50'0 0.0
2014-Aug-14 11:32N 44°06' E 009°50'0 0.0
2014-Aug-14 10:32N 44°06' E 009°50'0 0.0
2014-Aug-14 09:32N 44°06' E 009°50'0 0.0
2014-Aug-14 08:32N 44°06' E 009°50'0 0.0
2014-Aug-14 07:32N 44°06' E 009°50'0 0.0
2014-Aug-14 06:32N 44°06' E 009°50'0 0.0
2014-Aug-14 05:32N 44°06' E 009°50'0 0.0
2014-Aug-14 04:32N 44°06' E 009°50'0 0.0
2014-Aug-14 03:32N 44°06' E 009°50'0 0.0
2014-Aug-14 02:32N 44°06' E 009°50'0 0.0
2014-Aug-14 01:32N 44°06' E 009°50'0 0.0
2014-Aug-14 00:32N 44°06' E 009°50'0 0.0
2014-Aug-13 23:29N 44°06' E 009°50'0 0.0
2014-Aug-13 22:32N 44°06' E 009°50'0 0.0
2014-Aug-13 21:32N 44°06' E 009°50'0 0.0
2014-Aug-13 20:32N 44°06' E 009°50'0 0.0
2014-Aug-13 19:32N 44°06' E 009°50'0 0.0
2014-Aug-13 18:32N 44°06' E 009°50'0 0.0
2014-Aug-13 17:32N 44°06' E 009°50'0 0.0
2014-Aug-13 16:32N 44°06' E 009°50'0 0.0
2014-Aug-13 15:32N 44°06' E 009°50'0 0.0
2014-Aug-13 14:32N 44°06' E 009°50'0 0.0
2014-Aug-13 13:32N 44°06' E 009°50'0 0.0
2014-Aug-13 12:32N 44°06' E 009°50'0 0.0
2014-Aug-13 11:32N 44°06' E 009°50'0 0.0
2014-Aug-13 10:32N 44°06' E 009°50'0 0.0
2014-Aug-13 09:32N 44°06' E 009°50'0 0.0
2014-Aug-13 08:32N 44°06' E 009°50'0 0.0
2014-Aug-13 07:32N 44°06' E 009°50'0 0.0
2014-Aug-13 06:32N 44°06' E 009°50'4 3.9
2014-Aug-13 05:33N 44°03' E 009°52'1 0.9
2014-Aug-13 04:31N 44°04' E 009°53'0 0.0
2014-Aug-13 03:31N 44°04' E 009°53'0 0.0
2014-Aug-13 02:31N 44°04' E 009°53'0 0.0
2014-Aug-13 01:31N 44°04' E 009°53'0 0.0
2014-Aug-13 00:31N 44°04' E 009°53'0 0.0
2014-Aug-12 23:31N 44°04' E 009°53'0 0.0
2014-Aug-12 22:31N 44°04' E 009°53'0 0.0
2014-Aug-12 21:31N 44°04' E 009°53'0 0.0
2014-Aug-12 20:31N 44°04' E 009°53'0 0.0
2014-Aug-12 19:31N 44°04' E 009°53'0 0.0
2014-Aug-12 18:31N 44°04' E 009°53'0 0.0
2014-Aug-12 17:31N 44°04' E 009°53'0 0.0
2014-Aug-12 16:31N 44°04' E 009°53'0 0.0
2014-Aug-12 15:31N 44°04' E 009°53'0 0.0
2014-Aug-12 14:32N 44°04' E 009°53'0 0.0
2014-Aug-12 13:32N 44°04' E 009°53'0 0.0
2014-Aug-12 12:32N 44°04' E 009°53'0 0.0
2014-Aug-12 11:32N 44°04' E 009°53'0 0.0
2014-Aug-12 10:32N 44°04' E 009°53'0 0.0
2014-Aug-12 09:32N 44°04' E 009°53'0 0.0
2014-Aug-12 08:32N 44°04' E 009°53'0 0.0
2014-Aug-11 16:32N 44°04' E 009°53'0 0.0
2014-Aug-11 15:32N 44°04' E 009°53'0 0.0
2014-Aug-11 14:33N 44°04' E 009°53'0 0.0
2014-Aug-11 13:33N 44°04' E 009°53'0 0.0
2014-Aug-11 12:33N 44°04' E 009°53'0 0.0
2014-Aug-11 11:33N 44°04' E 009°53'0 0.0
2014-Aug-11 10:33N 44°04' E 009°53'0 0.0
2014-Aug-11 09:33N 44°04' E 009°53'0 0.0
2014-Aug-11 08:30N 44°04' E 009°53'0 0.0
2014-Aug-10 22:18N 44°04' E 009°53'0 0.0
2014-Aug-10 21:33N 44°04' E 009°53'0 0.0
2014-Aug-10 20:33N 44°04' E 009°53'0 0.0
2014-Aug-10 19:33N 44°04' E 009°53'0 0.0
2014-Aug-10 18:33N 44°04' E 009°53'0 0.0
2014-Aug-10 17:33N 44°04' E 009°53'0 0.0
2014-Aug-10 16:33N 44°04' E 009°53'0 0.0
2014-Aug-10 15:33N 44°04' E 009°53'0 0.0
2014-Aug-10 14:33N 44°04' E 009°53'0 0.0
2014-Aug-10 13:32N 44°04' E 009°53'0 0.0
2014-Aug-10 12:32N 44°04' E 009°53'0 0.0
2014-Aug-10 11:33N 44°04' E 009°53'0 0.0
2014-Aug-10 10:33N 44°04' E 009°53'0 0.0
2014-Aug-10 09:33N 44°04' E 009°53'0 0.0
2014-Aug-10 08:33N 44°04' E 009°53'0 0.0
2014-Aug-10 07:33N 44°04' E 009°53'0 0.1
2014-Aug-10 06:33N 44°04' E 009°53'0 0.0
2014-Aug-10 05:33N 44°04' E 009°53'0 0.0
2014-Aug-10 04:33N 44°04' E 009°53'0 0.0
2014-Aug-10 03:33N 44°04' E 009°53'0 0.0
2014-Aug-10 02:33N 44°04' E 009°53'0 0.0
2014-Aug-10 01:33N 44°04' E 009°53'0 0.0
2014-Aug-10 00:33N 44°04' E 009°53'0 0.0
2014-Aug-09 23:33N 44°04' E 009°53'0 0.0
2014-Aug-09 22:33N 44°04' E 009°53'0 0.0
2014-Aug-09 21:33N 44°04' E 009°53'0 0.0
2014-Aug-09 20:33N 44°04' E 009°53'0 0.0
2014-Aug-09 19:33N 44°04' E 009°53'0 0.0
2014-Aug-09 18:33N 44°04' E 009°53'0 0.0
2014-Aug-09 17:33N 44°04' E 009°53'0 0.0
2014-Aug-09 16:33N 44°04' E 009°53'0 0.0
2014-Aug-09 15:33N 44°04' E 009°53'0 0.0
2014-Aug-09 14:33N 44°04' E 009°53'1 0.6
2014-Aug-09 13:33N 44°03' E 009°53'7 6.9
2014-Aug-09 12:33N 44°01' E 010°02'1 1.4
2014-Aug-09 11:32N 44°02' E 010°03'0 0.0
2014-Aug-09 10:32N 44°02' E 010°03'0 0.0
2014-Aug-09 09:32N 44°02' E 010°03'0 0.0
2014-Aug-09 08:32N 44°02' E 010°03'0 0.0
2014-Aug-09 07:32N 44°02' E 010°03'0 0.0
2014-Aug-09 06:32N 44°02' E 010°03'0 0.0
2014-Aug-09 05:29N 44°02' E 010°03'0 0.0
2014-Aug-09 04:29N 44°02' E 010°03'0 0.0
2014-Aug-09 03:32N 44°02' E 010°03'0 0.0
2014-Aug-09 02:32N 44°02' E 010°03'0 0.0
2014-Aug-09 01:32N 44°02' E 010°03'0 0.0
2014-Aug-09 00:32N 44°02' E 010°03'0 0.0
2014-Aug-08 23:32N 44°02' E 010°03'0 0.0
2014-Aug-08 22:32N 44°02' E 010°03'0 0.0
2014-Aug-08 21:32N 44°02' E 010°03'0 0.0
2014-Aug-08 20:32N 44°02' E 010°03'0 0.0
2014-Aug-08 19:32N 44°02' E 010°03'0 0.0
2014-Aug-08 18:32N 44°02' E 010°03'0 0.0
2014-Aug-08 17:29N 44°02' E 010°03'0 0.0
2014-Aug-08 16:32N 44°02' E 010°03'0 0.0
2014-Aug-08 15:32N 44°02' E 010°03'0 0.0
2014-Aug-08 14:32N 44°02' E 010°03'0 0.0
2014-Aug-08 13:33N 44°02' E 010°03'2 2.0
2014-Aug-08 12:33N 44°00' E 010°01'0 0.5
2014-Aug-08 11:32N 43°60' E 010°01'0 0.0
2014-Aug-08 10:32N 43°60' E 010°01'0 0.0
2014-Aug-08 09:32N 43°60' E 010°01'0 0.1
2014-Aug-08 08:32N 43°60' E 010°01'0 0.0
2014-Aug-08 07:32N 43°60' E 010°01'0 0.0
2014-Aug-08 06:32N 43°60' E 010°01'0 0.0
2014-Aug-08 05:32N 43°60' E 010°01'0 0.0
2014-Aug-08 04:32N 43°60' E 010°01'0 0.0
2014-Aug-08 03:32N 43°60' E 010°01'0 0.0
2014-Aug-08 02:32N 43°60' E 010°01'0 0.0
2014-Aug-08 01:32N 43°60' E 010°01'0 0.0
2014-Aug-08 00:32N 43°60' E 010°01'0 0.0
2014-Aug-07 23:32N 43°60' E 010°01'0 0.0
2014-Aug-07 22:32N 43°60' E 010°01'0 0.0
2014-Aug-07 21:29N 43°60' E 010°01'0 0.0
2014-Aug-07 20:32N 43°60' E 010°01'0 0.0
2014-Aug-07 19:32N 43°60' E 010°01'0 0.0
2014-Aug-07 18:32N 43°60' E 010°01'0 0.0
2014-Aug-07 17:32N 43°60' E 010°01'0 0.0
2014-Aug-07 16:32N 43°60' E 010°01'0 0.0
2014-Aug-07 15:32N 43°60' E 010°01'0 0.0
2014-Aug-07 14:32N 43°60' E 010°01'0 0.0
2014-Aug-07 13:32N 43°60' E 010°01'0 0.0
2014-Aug-07 12:32N 43°60' E 010°01'0 0.0
2014-Aug-07 11:32N 43°60' E 010°01'0 0.0
2014-Aug-07 10:32N 43°60' E 010°01'0 0.0
2014-Aug-07 09:32N 43°60' E 010°01'0 0.0
2014-Aug-07 08:32N 43°60' E 010°01'0 0.1
2014-Aug-07 07:32N 43°60' E 010°01'0 0.0
2014-Aug-07 06:32N 43°60' E 010°01'0 0.0
2014-Aug-07 05:32N 43°60' E 010°01'0 0.0
2014-Aug-07 04:32N 43°60' E 010°01'0 0.0
2014-Aug-07 03:32N 43°60' E 010°01'0 0.0
2014-Aug-07 02:32N 43°60' E 010°01'0 0.0
2014-Aug-07 01:32N 43°60' E 010°01'0 0.0
2014-Aug-07 00:32N 43°60' E 010°01'0 0.0
2014-Aug-06 23:32N 43°60' E 010°01'0 0.0
2014-Aug-06 22:32N 43°60' E 010°01'0 0.0
2014-Aug-06 21:32N 43°60' E 010°01'0 0.0
2014-Aug-06 20:32N 43°60' E 010°01'0 0.0
2014-Aug-06 19:32N 43°60' E 010°01'0 0.0
2014-Aug-06 18:32N 43°60' E 010°01'0 0.0
2014-Aug-06 17:32N 43°60' E 010°01'0 0.0
2014-Aug-06 16:32N 43°60' E 010°01'0 0.0
2014-Aug-06 15:32N 43°60' E 010°01'0 0.0
2014-Aug-06 14:32N 43°60' E 010°01'0 0.0
2014-Aug-06 13:32N 43°60' E 010°01'0 0.0
2014-Aug-06 12:32N 43°60' E 010°01'0 0.0
2014-Aug-06 11:32N 43°60' E 010°01'0 0.0
2014-Aug-06 10:32N 43°60' E 010°01'0 0.0
2014-Aug-06 09:32N 43°60' E 010°01'0 0.0
2014-Aug-06 08:32N 43°60' E 010°01'0 0.0
2014-Aug-06 07:32N 43°60' E 010°01'0 0.0
2014-Aug-06 06:32N 43°60' E 010°01'0 0.0
2014-Aug-06 05:32N 43°60' E 010°01'0 0.0
2014-Aug-06 04:32N 43°60' E 010°01'0 0.0
2014-Aug-06 03:32N 43°60' E 010°01'0 0.0
2014-Aug-06 02:32N 43°60' E 010°01'0 0.0
2014-Aug-06 01:32N 43°60' E 010°01'0 0.0
2014-Aug-06 00:32N 43°60' E 010°01'0 0.0
2014-Aug-05 23:32N 43°60' E 010°01'0 0.0
2014-Aug-05 22:32N 43°60' E 010°01'0 0.1
2014-Aug-05 21:32N 43°60' E 010°01'0 0.0
2014-Aug-05 20:32N 43°60' E 010°01'3 3.6
2014-Aug-05 19:33N 43°57' E 009°59'1010.0
2014-Aug-05 18:33N 43°48' E 009°51'1010.1
2014-Aug-05 17:33N 43°39' E 009°47'1010.3
2014-Aug-05 16:33N 43°29' E 009°45'1110.5
2014-Aug-05 15:33N 43°18' E 009°43'21 9.7
2014-Aug-05 13:22N 42°57' E 009°41'1310.3
2014-Aug-05 12:08N 42°46' E 009°48'  
Track history (hours):
 
Tides and Currents Weather Stations Pressure Air Temp Water Temp Dewpoint Dewpoint Depression Visibility Wind Speed Wind Dir Waves Ship Positions

Cimbria

Last reported at 2014-Aug-14 23:21 UTC. Time now 2014-Aug-21 14:11 UTC.
Position N 43°16' E 009°11'.

Length 109 m; draft 6.8 m.

Type: Cargo ship. MMSI: 304981000.

Date/timePositionNaut miles runAvg speedWind from/ knotsBaromVisibWave heightAir tempDewpointWater temp
2014-Aug-14 23:21N 43°16' E 009°11'6 7.8
2014-Aug-14 22:33N 43°21' E 009°17'7 7.4
2014-Aug-14 21:33N 43°27' E 009°23'6 6.2
2014-Aug-14 20:33N 43°29' E 009°31'7 7.0
2014-Aug-14 19:33N 43°35' E 009°35'8 7.8
2014-Aug-14 18:33N 43°42' E 009°40'9 8.6
2014-Aug-14 17:33N 43°50' E 009°45'9 9.0
2014-Aug-14 16:33N 43°58' E 009°50'8 8.2
2014-Aug-14 15:33N 44°06' E 009°50'1 0.5
2014-Aug-14 14:32N 44°06' E 009°50'0 0.0
2014-Aug-14 13:32N 44°06' E 009°50'0 0.0
2014-Aug-14 12:32N 44°06' E 009°50'0 0.0
2014-Aug-14 11:32N 44°06' E 009°50'0 0.0
2014-Aug-14 10:32N 44°06' E 009°50'0 0.0
2014-Aug-14 09:32N 44°06' E 009°50'0 0.0
2014-Aug-14 08:32N 44°06' E 009°50'0 0.0
2014-Aug-14 07:32N 44°06' E 009°50'0 0.0
2014-Aug-14 06:32N 44°06' E 009°50'0 0.0
2014-Aug-14 05:32N 44°06' E 009°50'0 0.0
2014-Aug-14 04:32N 44°06' E 009°50'0 0.0
2014-Aug-14 03:32N 44°06' E 009°50'0 0.0
2014-Aug-14 02:32N 44°06' E 009°50'0 0.0
2014-Aug-14 01:32N 44°06' E 009°50'0 0.0
2014-Aug-14 00:32N 44°06' E 009°50'0 0.0
2014-Aug-13 23:29N 44°06' E 009°50'0 0.0
2014-Aug-13 22:32N 44°06' E 009°50'0 0.0
2014-Aug-13 21:32N 44°06' E 009°50'0 0.0
2014-Aug-13 20:32N 44°06' E 009°50'0 0.0
2014-Aug-13 19:32N 44°06' E 009°50'0 0.0
2014-Aug-13 18:32N 44°06' E 009°50'0 0.0
2014-Aug-13 17:32N 44°06' E 009°50'0 0.0
2014-Aug-13 16:32N 44°06' E 009°50'0 0.0
2014-Aug-13 15:32N 44°06' E 009°50'0 0.0
2014-Aug-13 14:32N 44°06' E 009°50'0 0.0
2014-Aug-13 13:32N 44°06' E 009°50'0 0.0
2014-Aug-13 12:32N 44°06' E 009°50'0 0.0
2014-Aug-13 11:32N 44°06' E 009°50'0 0.0
2014-Aug-13 10:32N 44°06' E 009°50'0 0.0
2014-Aug-13 09:32N 44°06' E 009°50'0 0.0
2014-Aug-13 08:32N 44°06' E 009°50'0 0.0
2014-Aug-13 07:32N 44°06' E 009°50'0 0.0
2014-Aug-13 06:32N 44°06' E 009°50'4 3.9
2014-Aug-13 05:33N 44°03' E 009°52'1 0.9
2014-Aug-13 04:31N 44°04' E 009°53'0 0.0
2014-Aug-13 03:31N 44°04' E 009°53'0 0.0
2014-Aug-13 02:31N 44°04' E 009°53'0 0.0
2014-Aug-13 01:31N 44°04' E 009°53'0 0.0
2014-Aug-13 00:31N 44°04' E 009°53'0 0.0
2014-Aug-12 23:31N 44°04' E 009°53'0 0.0
2014-Aug-12 22:31N 44°04' E 009°53'0 0.0
2014-Aug-12 21:31N 44°04' E 009°53'0 0.0
2014-Aug-12 20:31N 44°04' E 009°53'0 0.0
2014-Aug-12 19:31N 44°04' E 009°53'0 0.0
2014-Aug-12 18:31N 44°04' E 009°53'0 0.0
2014-Aug-12 17:31N 44°04' E 009°53'0 0.0
2014-Aug-12 16:31N 44°04' E 009°53'0 0.0
2014-Aug-12 15:31N 44°04' E 009°53'0 0.0
2014-Aug-12 14:32N 44°04' E 009°53'0 0.0
2014-Aug-12 13:32N 44°04' E 009°53'0 0.0
2014-Aug-12 12:32N 44°04' E 009°53'0 0.0
2014-Aug-12 11:32N 44°04' E 009°53'0 0.0
2014-Aug-12 10:32N 44°04' E 009°53'0 0.0
2014-Aug-12 09:32N 44°04' E 009°53'0 0.0
2014-Aug-12 08:32N 44°04' E 009°53'0 0.0
2014-Aug-11 16:32N 44°04' E 009°53'0 0.0
2014-Aug-11 15:32N 44°04' E 009°53'0 0.0
2014-Aug-11 14:33N 44°04' E 009°53'0 0.0
2014-Aug-11 13:33N 44°04' E 009°53'0 0.0
2014-Aug-11 12:33N 44°04' E 009°53'0 0.0
2014-Aug-11 11:33N 44°04' E 009°53'0 0.0
2014-Aug-11 10:33N 44°04' E 009°53'0 0.0
2014-Aug-11 09:33N 44°04' E 009°53'0 0.0
2014-Aug-11 08:30N 44°04' E 009°53'0 0.0
2014-Aug-10 22:18N 44°04' E 009°53'0 0.0
2014-Aug-10 21:33N 44°04' E 009°53'0 0.0
2014-Aug-10 20:33N 44°04' E 009°53'0 0.0
2014-Aug-10 19:33N 44°04' E 009°53'0 0.0
2014-Aug-10 18:33N 44°04' E 009°53'0 0.0
2014-Aug-10 17:33N 44°04' E 009°53'0 0.0
2014-Aug-10 16:33N 44°04' E 009°53'0 0.0
2014-Aug-10 15:33N 44°04' E 009°53'0 0.0
2014-Aug-10 14:33N 44°04' E 009°53'0 0.0
2014-Aug-10 13:32N 44°04' E 009°53'0 0.0
2014-Aug-10 12:32N 44°04' E 009°53'0 0.0
2014-Aug-10 11:33N 44°04' E 009°53'0 0.0
2014-Aug-10 10:33N 44°04' E 009°53'0 0.0
2014-Aug-10 09:33N 44°04' E 009°53'0 0.0
2014-Aug-10 08:33N 44°04' E 009°53'0 0.0
2014-Aug-10 07:33N 44°04' E 009°53'0 0.1
2014-Aug-10 06:33N 44°04' E 009°53'0 0.0
2014-Aug-10 05:33N 44°04' E 009°53'0 0.0
2014-Aug-10 04:33N 44°04' E 009°53'0 0.0
2014-Aug-10 03:33N 44°04' E 009°53'0 0.0
2014-Aug-10 02:33N 44°04' E 009°53'0 0.0
2014-Aug-10 01:33N 44°04' E 009°53'0 0.0
2014-Aug-10 00:33N 44°04' E 009°53'0 0.0
2014-Aug-09 23:33N 44°04' E 009°53'0 0.0
2014-Aug-09 22:33N 44°04' E 009°53'0 0.0
2014-Aug-09 21:33N 44°04' E 009°53'0 0.0
2014-Aug-09 20:33N 44°04' E 009°53'0 0.0
2014-Aug-09 19:33N 44°04' E 009°53'0 0.0
2014-Aug-09 18:33N 44°04' E 009°53'0 0.0
2014-Aug-09 17:33N 44°04' E 009°53'0 0.0
2014-Aug-09 16:33N 44°04' E 009°53'0 0.0
2014-Aug-09 15:33N 44°04' E 009°53'0 0.0
2014-Aug-09 14:33N 44°04' E 009°53'1 0.6
2014-Aug-09 13:33N 44°03' E 009°53'7 6.9
2014-Aug-09 12:33N 44°01' E 010°02'1 1.4
2014-Aug-09 11:32N 44°02' E 010°03'0 0.0
2014-Aug-09 10:32N 44°02' E 010°03'0 0.0
2014-Aug-09 09:32N 44°02' E 010°03'0 0.0
2014-Aug-09 08:32N 44°02' E 010°03'0 0.0
2014-Aug-09 07:32N 44°02' E 010°03'0 0.0
2014-Aug-09 06:32N 44°02' E 010°03'0 0.0
2014-Aug-09 05:29N 44°02' E 010°03'0 0.0
2014-Aug-09 04:29N 44°02' E 010°03'0 0.0
2014-Aug-09 03:32N 44°02' E 010°03'0 0.0
2014-Aug-09 02:32N 44°02' E 010°03'0 0.0
2014-Aug-09 01:32N 44°02' E 010°03'0 0.0
2014-Aug-09 00:32N 44°02' E 010°03'0 0.0
2014-Aug-08 23:32N 44°02' E 010°03'0 0.0
2014-Aug-08 22:32N 44°02' E 010°03'0 0.0
2014-Aug-08 21:32N 44°02' E 010°03'0 0.0
2014-Aug-08 20:32N 44°02' E 010°03'0 0.0
2014-Aug-08 19:32N 44°02' E 010°03'0 0.0
2014-Aug-08 18:32N 44°02' E 010°03'0 0.0
2014-Aug-08 17:29N 44°02' E 010°03'0 0.0
2014-Aug-08 16:32N 44°02' E 010°03'0 0.0
2014-Aug-08 15:32N 44°02' E 010°03'0 0.0
2014-Aug-08 14:32N 44°02' E 010°03'0 0.0
2014-Aug-08 13:33N 44°02' E 010°03'2 2.0
2014-Aug-08 12:33N 44°00' E 010°01'0 0.5
2014-Aug-08 11:32N 43°60' E 010°01'0 0.0
2014-Aug-08 10:32N 43°60' E 010°01'0 0.0
2014-Aug-08 09:32N 43°60' E 010°01'0 0.1
2014-Aug-08 08:32N 43°60' E 010°01'0 0.0
2014-Aug-08 07:32N 43°60' E 010°01'0 0.0
2014-Aug-08 06:32N 43°60' E 010°01'0 0.0
2014-Aug-08 05:32N 43°60' E 010°01'0 0.0
2014-Aug-08 04:32N 43°60' E 010°01'0 0.0
2014-Aug-08 03:32N 43°60' E 010°01'0 0.0
2014-Aug-08 02:32N 43°60' E 010°01'0 0.0
2014-Aug-08 01:32N 43°60' E 010°01'0 0.0
2014-Aug-08 00:32N 43°60' E 010°01'0 0.0
2014-Aug-07 23:32N 43°60' E 010°01'0 0.0
2014-Aug-07 22:32N 43°60' E 010°01'0 0.0
2014-Aug-07 21:29N 43°60' E 010°01'0 0.0
2014-Aug-07 20:32N 43°60' E 010°01'0 0.0
2014-Aug-07 19:32N 43°60' E 010°01'0 0.0
2014-Aug-07 18:32N 43°60' E 010°01'0 0.0
2014-Aug-07 17:32N 43°60' E 010°01'0 0.0
2014-Aug-07 16:32N 43°60' E 010°01'0 0.0
2014-Aug-07 15:32N 43°60' E 010°01'0 0.0
2014-Aug-07 14:32N 43°60' E 010°01'0 0.0
2014-Aug-07 13:32N 43°60' E 010°01'0 0.0
2014-Aug-07 12:32N 43°60' E 010°01'0 0.0
2014-Aug-07 11:32N 43°60' E 010°01'0 0.0
2014-Aug-07 10:32N 43°60' E 010°01'0 0.0
2014-Aug-07 09:32N 43°60' E 010°01'0 0.0
2014-Aug-07 08:32N 43°60' E 010°01'0 0.1
2014-Aug-07 07:32N 43°60' E 010°01'0 0.0
2014-Aug-07 06:32N 43°60' E 010°01'0 0.0
2014-Aug-07 05:32N 43°60' E 010°01'0 0.0
2014-Aug-07 04:32N 43°60' E 010°01'0 0.0
2014-Aug-07 03:32N 43°60' E 010°01'0 0.0
2014-Aug-07 02:32N 43°60' E 010°01'0 0.0
2014-Aug-07 01:32N 43°60' E 010°01'0 0.0
2014-Aug-07 00:32N 43°60' E 010°01'0 0.0
2014-Aug-06 23:32N 43°60' E 010°01'0 0.0
2014-Aug-06 22:32N 43°60' E 010°01'0 0.0
2014-Aug-06 21:32N 43°60' E 010°01'0 0.0
2014-Aug-06 20:32N 43°60' E 010°01'0 0.0
2014-Aug-06 19:32N 43°60' E 010°01'0 0.0
2014-Aug-06 18:32N 43°60' E 010°01'0 0.0
2014-Aug-06 17:32N 43°60' E 010°01'0 0.0
2014-Aug-06 16:32N 43°60' E 010°01'0 0.0
2014-Aug-06 15:32N 43°60' E 010°01'0 0.0
2014-Aug-06 14:32N 43°60' E 010°01'0 0.0
2014-Aug-06 13:32N 43°60' E 010°01'0 0.0
2014-Aug-06 12:32N 43°60' E 010°01'0 0.0
2014-Aug-06 11:32N 43°60' E 010°01'0 0.0
2014-Aug-06 10:32N 43°60' E 010°01'0 0.0
2014-Aug-06 09:32N 43°60' E 010°01'0 0.0
2014-Aug-06 08:32N 43°60' E 010°01'0 0.0
2014-Aug-06 07:32N 43°60' E 010°01'0 0.0
2014-Aug-06 06:32N 43°60' E 010°01'0 0.0
2014-Aug-06 05:32N 43°60' E 010°01'0 0.0
2014-Aug-06 04:32N 43°60' E 010°01'0 0.0
2014-Aug-06 03:32N 43°60' E 010°01'0 0.0
2014-Aug-06 02:32N 43°60' E 010°01'0 0.0
2014-Aug-06 01:32N 43°60' E 010°01'0 0.0
2014-Aug-06 00:32N 43°60' E 010°01'0 0.0
2014-Aug-05 23:32N 43°60' E 010°01'0 0.0
2014-Aug-05 22:32N 43°60' E 010°01'0 0.1
2014-Aug-05 21:32N 43°60' E 010°01'0 0.0
2014-Aug-05 20:32N 43°60' E 010°01'3 3.6
2014-Aug-05 19:33N 43°57' E 009°59'1010.0
2014-Aug-05 18:33N 43°48' E 009°51'1010.1
2014-Aug-05 17:33N 43°39' E 009°47'1010.3
2014-Aug-05 16:33N 43°29' E 009°45'1110.5
2014-Aug-05 15:33N 43°18' E 009°43'21 9.7
2014-Aug-05 13:22N 42°57' E 009°41'1310.3
2014-Aug-05 12:08N 42°46' E 009°48'  

Dump ship's entire track history